sensor_id;sensor_type;location;lat;lon;timestamp;pressure;altitude;pressure_sealevel;temperature;humidity
78354;BME280;67629;46.040;18.232;2023-02-15T00:01:25;101523.25;;;0.11;82.71
78354;BME280;67629;46.040;18.232;2023-02-15T00:02:47;101512.34;;;0.13;82.51
78354;BME280;67629;46.040;18.232;2023-02-15T00:04:05;101516.75;;;0.14;82.46
78354;BME280;67629;46.040;18.232;2023-02-15T00:06:15;101524.06;;;0.12;82.48
78354;BME280;67629;46.040;18.232;2023-02-15T00:07:42;101523.34;;;0.10;82.76
78354;BME280;67629;46.040;18.232;2023-02-15T00:09:03;101526.75;;;0.12;82.93
78354;BME280;67629;46.040;18.232;2023-02-15T00:10:22;101524.22;;;0.10;82.83
78354;BME280;67629;46.040;18.232;2023-02-15T00:11:44;101533.00;;;0.12;82.91
78354;BME280;67629;46.040;18.232;2023-02-15T00:13:15;101533.00;;;0.12;82.92
78354;BME280;67629;46.040;18.232;2023-02-15T00:14:34;101520.16;;;0.16;82.87
78354;BME280;67629;46.040;18.232;2023-02-15T00:15:53;101525.53;;;0.16;82.91
78354;BME280;67629;46.040;18.232;2023-02-15T00:16:36;101529.06;;;0.16;83.05
78354;BME280;67629;46.040;18.232;2023-02-15T00:17:23;101525.78;;;0.13;83.00
78354;BME280;67629;46.040;18.232;2023-02-15T00:18:03;101527.50;;;0.14;82.80
78354;BME280;67629;46.040;18.232;2023-02-15T00:18:42;101524.81;;;0.14;83.09
78354;BME280;67629;46.040;18.232;2023-02-15T00:19:23;101518.44;;;0.15;83.42
78354;BME280;67629;46.040;18.232;2023-02-15T00:20:27;101530.78;;;0.17;83.01
78354;BME280;67629;46.040;18.232;2023-02-15T00:21:48;101523.00;;;0.14;82.96
78354;BME280;67629;46.040;18.232;2023-02-15T00:23:09;101519.19;;;0.17;82.75
78354;BME280;67629;46.040;18.232;2023-02-15T00:24:31;101522.19;;;0.23;83.44
78354;BME280;67629;46.040;18.232;2023-02-15T00:26:06;101516.28;;;0.29;83.60
78354;BME280;67629;46.040;18.232;2023-02-15T00:28:25;101525.91;;;0.32;83.60
78354;BME280;67629;46.040;18.232;2023-02-15T00:29:04;101517.03;;;0.31;83.61
78354;BME280;67629;46.040;18.232;2023-02-15T00:31:07;101516.03;;;0.32;83.73
78354;BME280;67629;46.040;18.232;2023-02-15T00:31:48;101518.84;;;0.31;83.33
78354;BME280;67629;46.040;18.232;2023-02-15T00:34:34;101521.72;;;0.39;83.76
78354;BME280;67629;46.040;18.232;2023-02-15T00:36:34;101517.31;;;0.38;83.17
78354;BME280;67629;46.040;18.232;2023-02-15T00:38:51;101521.03;;;0.37;81.71
78354;BME280;67629;46.040;18.232;2023-02-15T00:40:56;101520.53;;;0.32;81.93
78354;BME280;67629;46.040;18.232;2023-02-15T00:42:16;101523.47;;;0.29;82.75
78354;BME280;67629;46.040;18.232;2023-02-15T00:42:55;101510.19;;;0.27;82.70
78354;BME280;67629;46.040;18.232;2023-02-15T00:43:47;101516.53;;;0.26;82.18
78354;BME280;67629;46.040;18.232;2023-02-15T00:44:37;101518.66;;;0.23;82.22
78354;BME280;67629;46.040;18.232;2023-02-15T00:45:19;101520.50;;;0.22;82.36
78354;BME280;67629;46.040;18.232;2023-02-15T00:46:01;101518.19;;;0.18;82.53
78354;BME280;67629;46.040;18.232;2023-02-15T00:46:42;101515.63;;;0.16;82.86
78354;BME280;67629;46.040;18.232;2023-02-15T00:47:46;101523.69;;;0.16;83.11
78354;BME280;67629;46.040;18.232;2023-02-15T00:49:16;101521.53;;;0.10;84.02
78354;BME280;67629;46.040;18.232;2023-02-15T00:50:35;101526.31;;;0.07;83.59
78354;BME280;67629;46.040;18.232;2023-02-15T00:51:55;101514.84;;;0.05;84.60
78354;BME280;67629;46.040;18.232;2023-02-15T00:52:34;101520.63;;;0.00;83.75
78354;BME280;67629;46.040;18.232;2023-02-15T00:53:28;101514.00;;;0.04;83.94
78354;BME280;67629;46.040;18.232;2023-02-15T00:54:07;101516.56;;;0.06;84.14
78354;BME280;67629;46.040;18.232;2023-02-15T00:54:49;101521.44;;;0.00;84.45
78354;BME280;67629;46.040;18.232;2023-02-15T00:55:28;101516.59;;;-0.06;84.97
78354;BME280;67629;46.040;18.232;2023-02-15T00:56:11;101515.38;;;-0.02;84.22
78354;BME280;67629;46.040;18.232;2023-02-15T00:56:58;101513.09;;;-0.06;84.40
78354;BME280;67629;46.040;18.232;2023-02-15T00:57:42;101515.38;;;-0.02;83.69
78354;BME280;67629;46.040;18.232;2023-02-15T00:59:47;101511.81;;;-0.02;83.58
78354;BME280;67629;46.040;18.232;2023-02-15T01:01:47;101508.63;;;0.04;83.89
78354;BME280;67629;46.040;18.232;2023-02-15T01:03:13;101509.59;;;0.03;83.82
78354;BME280;67629;46.040;18.232;2023-02-15T01:04:32;101499.69;;;0.04;83.97
78354;BME280;67629;46.040;18.232;2023-02-15T01:05:14;101500.69;;;0.03;83.49
78354;BME280;67629;46.040;18.232;2023-02-15T01:06:41;101496.72;;;-0.03;83.82
78354;BME280;67629;46.040;18.232;2023-02-15T01:07:23;101499.13;;;0.00;84.20
78354;BME280;67629;46.040;18.232;2023-02-15T01:08:03;101498.84;;;0.03;84.41
78354;BME280;67629;46.040;18.232;2023-02-15T01:09:31;101499.97;;;0.00;84.63
78354;BME280;67629;46.040;18.232;2023-02-15T01:10:18;101494.72;;;-0.01;85.07
78354;BME280;67629;46.040;18.232;2023-02-15T01:11:10;101497.28;;;0.00;85.04
78354;BME280;67629;46.040;18.232;2023-02-15T01:11:49;101503.50;;;0.01;84.62
78354;BME280;67629;46.040;18.232;2023-02-15T01:12:30;101486.28;;;0.04;84.59
78354;BME280;67629;46.040;18.232;2023-02-15T01:13:14;101488.25;;;0.02;83.97
78354;BME280;67629;46.040;18.232;2023-02-15T01:14:02;101489.97;;;0.03;83.64
78354;BME280;67629;46.040;18.232;2023-02-15T01:14:44;101484.44;;;0.04;83.16
78354;BME280;67629;46.040;18.232;2023-02-15T01:15:36;101486.88;;;0.07;82.98
78354;BME280;67629;46.040;18.232;2023-02-15T01:16:16;101488.44;;;0.10;82.69
78354;BME280;67629;46.040;18.232;2023-02-15T01:16:55;101479.25;;;0.12;83.54
78354;BME280;67629;46.040;18.232;2023-02-15T01:17:44;101487.22;;;0.14;83.93
78354;BME280;67629;46.040;18.232;2023-02-15T01:18:30;101489.03;;;0.13;83.89
78354;BME280;67629;46.040;18.232;2023-02-15T01:19:47;101489.03;;;0.13;84.46
78354;BME280;67629;46.040;18.232;2023-02-15T01:20:37;101487.91;;;0.16;84.50
78354;BME280;67629;46.040;18.232;2023-02-15T01:21:30;101479.44;;;0.20;84.35
78354;BME280;67629;46.040;18.232;2023-02-15T01:22:15;101481.88;;;0.23;83.89
78354;BME280;67629;46.040;18.232;2023-02-15T01:23:32;101478.91;;;0.26;84.17
78354;BME280;67629;46.040;18.232;2023-02-15T01:25:01;101480.03;;;0.24;83.95
78354;BME280;67629;46.040;18.232;2023-02-15T01:25:43;101479.19;;;0.23;84.35
78354;BME280;67629;46.040;18.232;2023-02-15T01:26:23;101475.13;;;0.29;84.31
78354;BME280;67629;46.040;18.232;2023-02-15T01:27:02;101477.41;;;0.33;84.84
78354;BME280;67629;46.040;18.232;2023-02-15T01:29:08;101484.09;;;0.39;83.88
78354;BME280;67629;46.040;18.232;2023-02-15T01:31:10;101486.06;;;0.37;83.04
78354;BME280;67629;46.040;18.232;2023-02-15T01:32:33;101476.16;;;0.37;83.21
78354;BME280;67629;46.040;18.232;2023-02-15T01:36:07;101479.00;;;0.36;83.26
78354;BME280;67629;46.040;18.232;2023-02-15T01:36:56;101480.09;;;0.33;83.11
78354;BME280;67629;46.040;18.232;2023-02-15T01:37:36;101480.81;;;0.35;83.18
78354;BME280;67629;46.040;18.232;2023-02-15T01:38:18;101485.47;;;0.33;83.25
78354;BME280;67629;46.040;18.232;2023-02-15T01:38:57;101478.53;;;0.31;83.75
78354;BME280;67629;46.040;18.232;2023-02-15T01:39:38;101482.09;;;0.31;83.93
78354;BME280;67629;46.040;18.232;2023-02-15T01:41:02;101470.94;;;0.36;84.72
78354;BME280;67629;46.040;18.232;2023-02-15T01:42:03;101473.75;;;0.34;83.81
78354;BME280;67629;46.040;18.232;2023-02-15T01:42:52;101478.13;;;0.35;83.34
78354;BME280;67629;46.040;18.232;2023-02-15T01:43:46;101474.47;;;0.36;83.14
78354;BME280;67629;46.040;18.232;2023-02-15T01:45:31;101478.41;;;0.32;83.04
78354;BME280;67629;46.040;18.232;2023-02-15T01:49:19;101475.25;;;0.27;84.61
78354;BME280;67629;46.040;18.232;2023-02-15T01:51:03;101473.44;;;0.28;84.04
78354;BME280;67629;46.040;18.232;2023-02-15T01:52:54;101481.59;;;0.26;83.91
78354;BME280;67629;46.040;18.232;2023-02-15T01:53:39;101486.00;;;0.27;84.05
78354;BME280;67629;46.040;18.232;2023-02-15T01:54:31;101481.50;;;0.28;84.15
78354;BME280;67629;46.040;18.232;2023-02-15T01:55:15;101480.50;;;0.29;84.28
78354;BME280;67629;46.040;18.232;2023-02-15T01:56:15;101472.44;;;0.29;84.52
78354;BME280;67629;46.040;18.232;2023-02-15T01:57:02;101476.97;;;0.28;84.43
78354;BME280;67629;46.040;18.232;2023-02-15T01:59:09;101474.41;;;0.27;83.76
78354;BME280;67629;46.040;18.232;2023-02-15T02:01:18;101483.72;;;0.23;83.93
78354;BME280;67629;46.040;18.232;2023-02-15T02:05:03;101467.72;;;0.21;83.79
78354;BME280;67629;46.040;18.232;2023-02-15T02:06:26;101472.38;;;0.19;83.52
78354;BME280;67629;46.040;18.232;2023-02-15T02:08:53;101476.91;;;0.19;84.23
78354;BME280;67629;46.040;18.232;2023-02-15T02:10:19;101477.88;;;0.18;84.31
78354;BME280;67629;46.040;18.232;2023-02-15T02:10:59;101479.59;;;0.19;83.91
78354;BME280;67629;46.040;18.232;2023-02-15T02:11:40;101478.72;;;0.18;84.21
78354;BME280;67629;46.040;18.232;2023-02-15T02:14:51;101479.84;;;0.16;83.81
78354;BME280;67629;46.040;18.232;2023-02-15T02:16:30;101478.13;;;0.15;84.31
78354;BME280;67629;46.040;18.232;2023-02-15T02:18:17;101475.19;;;0.18;84.28
78354;BME280;67629;46.040;18.232;2023-02-15T02:27:25;101475.41;;;0.05;84.08
78354;BME280;67629;46.040;18.232;2023-02-15T02:34:55;101474.69;;;-0.18;84.39
78354;BME280;67629;46.040;18.232;2023-02-15T02:39:12;101468.56;;;-0.20;85.39
78354;BME280;67629;46.040;18.232;2023-02-15T02:42:26;101464.50;;;-0.14;84.94
78354;BME280;67629;46.040;18.232;2023-02-15T02:46:39;101468.72;;;-0.21;85.02
78354;BME280;67629;46.040;18.232;2023-02-15T02:48:11;101469.56;;;-0.21;84.45
78354;BME280;67629;46.040;18.232;2023-02-15T02:50:17;101473.22;;;-0.22;84.50
78354;BME280;67629;46.040;18.232;2023-02-15T02:50:57;101469.69;;;-0.22;84.41
78354;BME280;67629;46.040;18.232;2023-02-15T02:51:36;101468.81;;;-0.23;84.50
78354;BME280;67629;46.040;18.232;2023-02-15T02:52:34;101467.84;;;-0.22;84.91
78354;BME280;67629;46.040;18.232;2023-02-15T02:53:16;101477.47;;;-0.19;84.94
78354;BME280;67629;46.040;18.232;2023-02-15T02:54:00;101472.97;;;-0.19;85.33
78354;BME280;67629;46.040;18.232;2023-02-15T02:54:44;101470.69;;;-0.23;85.89
78354;BME280;67629;46.040;18.232;2023-02-15T02:55:47;101474.34;;;-0.24;84.92
78354;BME280;67629;46.040;18.232;2023-02-15T02:57:56;101482.50;;;-0.26;84.58
78354;BME280;67629;46.040;18.232;2023-02-15T02:59:33;101468.81;;;-0.23;85.12
78354;BME280;67629;46.040;18.232;2023-02-15T03:01:18;101467.50;;;-0.28;84.97
78354;BME280;67629;46.040;18.232;2023-02-15T03:04:09;101467.84;;;-0.22;85.67
78354;BME280;67629;46.040;18.232;2023-02-15T03:05:29;101467.00;;;-0.22;85.78
78354;BME280;67629;46.040;18.232;2023-02-15T03:06:38;101466.13;;;-0.23;84.69
78354;BME280;67629;46.040;18.232;2023-02-15T03:07:21;101465.31;;;-0.23;85.14
78354;BME280;67629;46.040;18.232;2023-02-15T03:08:27;101466.03;;;-0.21;85.13
78354;BME280;67629;46.040;18.232;2023-02-15T03:09:56;101467.75;;;-0.20;85.04
78354;BME280;67629;46.040;18.232;2023-02-15T03:11:29;101469.44;;;-0.19;85.32
78354;BME280;67629;46.040;18.232;2023-02-15T03:12:28;101467.00;;;-0.22;85.48
78354;BME280;67629;46.040;18.232;2023-02-15T03:16:32;101475.50;;;-0.38;85.99
78354;BME280;67629;46.040;18.232;2023-02-15T03:18:01;101478.44;;;-0.41;86.00
78354;BME280;67629;46.040;18.232;2023-02-15T03:19:29;101477.59;;;-0.41;85.91
78354;BME280;67629;46.040;18.232;2023-02-15T03:20:51;101485.03;;;-0.45;86.35
78354;BME280;67629;46.040;18.232;2023-02-15T03:22:26;101485.03;;;-0.45;86.42
78354;BME280;67629;46.040;18.232;2023-02-15T03:25:19;101496.16;;;-0.49;85.67
78354;BME280;67629;46.040;18.232;2023-02-15T03:26:05;101482.25;;;-0.54;86.00
78354;BME280;67629;46.040;18.232;2023-02-15T03:28:31;101485.34;;;-0.59;86.46
78354;BME280;67629;46.040;18.232;2023-02-15T03:31:01;101486.53;;;-0.52;85.87
78354;BME280;67629;46.040;18.232;2023-02-15T03:33:15;101490.66;;;-0.48;85.12
78354;BME280;67629;46.040;18.232;2023-02-15T03:34:34;101487.13;;;-0.48;84.55
78354;BME280;67629;46.040;18.232;2023-02-15T03:36:18;101490.81;;;-0.49;84.68
78354;BME280;67629;46.040;18.232;2023-02-15T03:38:22;101489.22;;;-0.52;85.05
78354;BME280;67629;46.040;18.232;2023-02-15T03:40:09;101483.00;;;-0.52;85.37
78354;BME280;67629;46.040;18.232;2023-02-15T03:41:12;101493.47;;;-0.49;85.60
78354;BME280;67629;46.040;18.232;2023-02-15T03:42:00;101482.84;;;-0.51;85.18
78354;BME280;67629;46.040;18.232;2023-02-15T03:42:59;101482.00;;;-0.51;86.02
78354;BME280;67629;46.040;18.232;2023-02-15T03:44:29;101483.38;;;-0.57;85.29
78354;BME280;67629;46.040;18.232;2023-02-15T03:45:15;101492.78;;;-0.63;84.95
78354;BME280;67629;46.040;18.232;2023-02-15T03:46:10;101495.72;;;-0.66;84.52
78354;BME280;67629;46.040;18.232;2023-02-15T03:47:17;101487.66;;;-0.66;83.69
78354;BME280;67629;46.040;18.232;2023-02-15T03:48:50;101494.28;;;-0.70;85.52
78354;BME280;67629;46.040;18.232;2023-02-15T03:49:54;101489.63;;;-0.68;85.44
78354;BME280;67629;46.040;18.232;2023-02-15T03:50:37;101489.50;;;-0.66;85.26
78354;BME280;67629;46.040;18.232;2023-02-15T03:52:57;101482.31;;;-0.77;85.90
78354;BME280;67629;46.040;18.232;2023-02-15T03:54:33;101486.38;;;-0.82;85.14
78354;BME280;67629;46.040;18.232;2023-02-15T03:56:03;101486.59;;;-0.74;86.39
78354;BME280;67629;46.040;18.232;2023-02-15T03:56:51;101480.84;;;-0.70;86.18
78354;BME280;67629;46.040;18.232;2023-02-15T03:57:51;101475.34;;;-0.68;86.23
78354;BME280;67629;46.040;18.232;2023-02-15T04:00:55;101486.31;;;-0.60;86.32
78354;BME280;67629;46.040;18.232;2023-02-15T04:03:59;101480.94;;;-0.60;85.78
78354;BME280;67629;46.040;18.232;2023-02-15T04:05:45;101489.13;;;-0.62;85.67
78354;BME280;67629;46.040;18.232;2023-02-15T04:06:32;101481.94;;;-0.61;85.74
78354;BME280;67629;46.040;18.232;2023-02-15T04:07:14;101483.63;;;-0.60;86.25
78354;BME280;67629;46.040;18.232;2023-02-15T04:08:18;101484.38;;;-0.58;86.76
78354;BME280;67629;46.040;18.232;2023-02-15T04:09:37;101486.19;;;-0.59;86.73
78354;BME280;67629;46.040;18.232;2023-02-15T04:10:40;101492.28;;;-0.57;86.90
78354;BME280;67629;46.040;18.232;2023-02-15T04:12:13;101489.22;;;-0.63;87.40
78354;BME280;67629;46.040;18.232;2023-02-15T04:13:55;101481.78;;;-0.60;86.27
78354;BME280;67629;46.040;18.232;2023-02-15T04:16:31;101489.47;;;-0.55;86.07
78354;BME280;67629;46.040;18.232;2023-02-15T04:19:50;101489.75;;;-0.69;85.59
78354;BME280;67629;46.040;18.232;2023-02-15T04:22:30;101490.94;;;-0.62;85.90
78354;BME280;67629;46.040;18.232;2023-02-15T04:24:31;101494.03;;;-0.67;85.17
78354;BME280;67629;46.040;18.232;2023-02-15T04:26:26;101489.41;;;-0.76;84.37
78354;BME280;67629;46.040;18.232;2023-02-15T04:27:06;101493.91;;;-0.76;84.90
78354;BME280;67629;46.040;18.232;2023-02-15T04:28:09;101493.53;;;-0.72;85.59
78354;BME280;67629;46.040;18.232;2023-02-15T04:29:35;101488.44;;;-0.75;85.75
78354;BME280;67629;46.040;18.232;2023-02-15T04:30:55;101492.44;;;-0.69;86.21
78354;BME280;67629;46.040;18.232;2023-02-15T04:31:34;101494.88;;;-0.66;86.11
78354;BME280;67629;46.040;18.232;2023-02-15T04:32:16;101490.34;;;-0.66;85.89
78354;BME280;67629;46.040;18.232;2023-02-15T04:32:58;101493.16;;;-0.67;86.00
78354;BME280;67629;46.040;18.232;2023-02-15T04:33:37;101489.38;;;-0.65;85.92
78354;BME280;67629;46.040;18.232;2023-02-15T04:34:17;101486.56;;;-0.63;86.28
78354;BME280;67629;46.040;18.232;2023-02-15T04:35:05;101492.91;;;-0.64;86.25
78354;BME280;67629;46.040;18.232;2023-02-15T04:35:53;101491.19;;;-0.65;85.29
78354;BME280;67629;46.040;18.232;2023-02-15T04:36:33;101484.97;;;-0.66;85.05
78354;BME280;67629;46.040;18.232;2023-02-15T04:38:31;101486.19;;;-0.59;85.58
78354;BME280;67629;46.040;18.232;2023-02-15T04:40:14;101483.84;;;-0.52;86.21
78354;BME280;67629;46.040;18.232;2023-02-15T04:41:06;101485.09;;;-0.56;86.76
78354;BME280;67629;46.040;18.232;2023-02-15T04:41:53;101484.22;;;-0.57;86.65
78354;BME280;67629;46.040;18.232;2023-02-15T04:42:36;101476.88;;;-0.54;86.71
78354;BME280;67629;46.040;18.232;2023-02-15T04:43:14;101476.06;;;-0.55;87.00
78354;BME280;67629;46.040;18.232;2023-02-15T04:44:00;101477.50;;;-0.51;86.57
78354;BME280;67629;46.040;18.232;2023-02-15T04:44:39;101482.59;;;-0.48;86.05
78354;BME280;67629;46.040;18.232;2023-02-15T04:45:26;101477.00;;;-0.45;86.11
78354;BME280;67629;46.040;18.232;2023-02-15T04:46:06;101486.88;;;-0.45;85.69
78354;BME280;67629;46.040;18.232;2023-02-15T04:46:50;101476.00;;;-0.44;85.23
78354;BME280;67629;46.040;18.232;2023-02-15T04:48:12;101480.97;;;-0.39;85.61
78354;BME280;67629;46.040;18.232;2023-02-15T04:49:31;101471.00;;;-0.37;85.11
78354;BME280;67629;46.040;18.232;2023-02-15T04:50:18;101474.50;;;-0.37;85.65
78354;BME280;67629;46.040;18.232;2023-02-15T04:50:58;101470.72;;;-0.34;85.27
78354;BME280;67629;46.040;18.232;2023-02-15T04:51:38;101474.13;;;-0.32;85.18
78354;BME280;67629;46.040;18.232;2023-02-15T04:52:42;101474.50;;;-0.37;85.83
78354;BME280;67629;46.040;18.232;2023-02-15T04:54:45;101473.13;;;-0.31;86.28
78354;BME280;67629;46.040;18.232;2023-02-15T04:55:34;101477.13;;;-0.26;86.23
78354;BME280;67629;46.040;18.232;2023-02-15T04:56:16;101473.47;;;-0.25;85.89
78354;BME280;67629;46.040;18.232;2023-02-15T04:57:20;101471.41;;;-0.21;86.31
78354;BME280;67629;46.040;18.232;2023-02-15T04:58:41;101467.44;;;-0.17;86.48
78354;BME280;67629;46.040;18.232;2023-02-15T05:00:08;101482.34;;;-0.13;85.71
78354;BME280;67629;46.040;18.232;2023-02-15T05:00:47;101480.63;;;-0.14;85.38
78354;BME280;67629;46.040;18.232;2023-02-15T05:01:51;101474.28;;;-0.13;86.04
78354;BME280;67629;46.040;18.232;2023-02-15T05:03:11;101478.69;;;-0.12;85.22
78354;BME280;67629;46.040;18.232;2023-02-15T05:03:51;101469.38;;;-0.08;84.89
78354;BME280;67629;46.040;18.232;2023-02-15T05:05:08;101476.56;;;-0.09;84.66
78354;BME280;67629;46.040;18.232;2023-02-15T05:06:37;101463.28;;;-0.10;85.06
78354;BME280;67629;46.040;18.232;2023-02-15T05:07:26;101467.16;;;-0.03;85.15
78354;BME280;67629;46.040;18.232;2023-02-15T05:08:07;101466.16;;;-0.02;85.00
78354;BME280;67629;46.040;18.232;2023-02-15T05:09:26;101465.31;;;-0.03;83.70
78354;BME280;67629;46.040;18.232;2023-02-15T05:10:06;101461.91;;;-0.05;83.60
78354;BME280;67629;46.040;18.232;2023-02-15T05:10:49;101454.56;;;-0.03;84.24
78354;BME280;67629;46.040;18.232;2023-02-15T05:11:29;101460.69;;;-0.01;83.85
78354;BME280;67629;46.040;18.232;2023-02-15T05:12:08;101456.41;;;-0.03;84.13
78354;BME280;67629;46.040;18.232;2023-02-15T05:12:50;101460.59;;;-0.10;84.68
78354;BME280;67629;46.040;18.232;2023-02-15T05:13:32;101458.78;;;-0.10;84.78
78354;BME280;67629;46.040;18.232;2023-02-15T05:14:56;101455.16;;;0.01;84.46
78354;BME280;67629;46.040;18.232;2023-02-15T05:15:36;101460.94;;;-0.04;84.64
78354;BME280;67629;46.040;18.232;2023-02-15T05:16:23;101462.75;;;-0.04;84.95
78354;BME280;67629;46.040;18.232;2023-02-15T05:17:04;101454.97;;;-0.07;84.80
78354;BME280;67629;46.040;18.232;2023-02-15T05:17:46;101461.44;;;-0.10;85.07
78354;BME280;67629;46.040;18.232;2023-02-15T05:18:28;101450.81;;;-0.11;84.67
78354;BME280;67629;46.040;18.232;2023-02-15T05:19:12;101454.09;;;-0.08;84.83
78354;BME280;67629;46.040;18.232;2023-02-15T05:20:35;101453.25;;;-0.08;84.42
78354;BME280;67629;46.040;18.232;2023-02-15T05:22:54;101459.66;;;0.00;84.71
78354;BME280;67629;46.040;18.232;2023-02-15T05:25:50;101464.94;;;0.02;84.41
78354;BME280;67629;46.040;18.232;2023-02-15T05:26:55;101465.03;;;0.00;84.75
78354;BME280;67629;46.040;18.232;2023-02-15T05:28:18;101467.34;;;0.05;84.70
78354;BME280;67629;46.040;18.232;2023-02-15T05:30:21;101465.81;;;0.12;84.25
78354;BME280;67629;46.040;18.232;2023-02-15T05:31:41;101465.72;;;0.14;84.43
78354;BME280;67629;46.040;18.232;2023-02-15T05:33:06;101462.34;;;0.21;83.99
78354;BME280;67629;46.040;18.232;2023-02-15T05:33:47;101462.94;;;0.25;83.80
78354;BME280;67629;46.040;18.232;2023-02-15T05:36:01;101462.69;;;0.28;83.41
78354;BME280;67629;46.040;18.232;2023-02-15T05:36:48;101469.63;;;0.30;83.35
78354;BME280;67629;46.040;18.232;2023-02-15T05:38:42;101467.63;;;0.23;83.67
78354;BME280;67629;46.040;18.232;2023-02-15T05:39:21;101473.63;;;0.15;83.93
78354;BME280;67629;46.040;18.232;2023-02-15T05:40:10;101464.44;;;0.18;83.72
78354;BME280;67629;46.040;18.232;2023-02-15T05:40:51;101464.94;;;0.23;83.82
78354;BME280;67629;46.040;18.232;2023-02-15T05:43:57;101469.63;;;0.30;82.80
78354;BME280;67629;46.040;18.232;2023-02-15T05:45:50;101475.34;;;0.16;83.43
78354;BME280;67629;46.040;18.232;2023-02-15T05:47:35;101472.13;;;0.22;83.30
78354;BME280;67629;46.040;18.232;2023-02-15T05:48:53;101477.75;;;0.19;83.79
78354;BME280;67629;46.040;18.232;2023-02-15T05:50:12;101476.75;;;0.20;83.08
78354;BME280;67629;46.040;18.232;2023-02-15T05:51:48;101479.44;;;0.20;83.61
78354;BME280;67629;46.040;18.232;2023-02-15T05:52:30;101483.84;;;0.21;83.44
78354;BME280;67629;46.040;18.232;2023-02-15T05:53:13;101491.13;;;0.30;83.43
78354;BME280;67629;46.040;18.232;2023-02-15T05:53:52;101486.16;;;0.26;83.71
78354;BME280;67629;46.040;18.232;2023-02-15T05:54:39;101483.19;;;0.29;83.73
78354;BME280;67629;46.040;18.232;2023-02-15T05:55:28;101495.78;;;0.28;83.92
78354;BME280;67629;46.040;18.232;2023-02-15T05:56:11;101483.06;;;0.30;84.00
78354;BME280;67629;46.040;18.232;2023-02-15T05:58:54;101496.56;;;-0.02;83.18
78354;BME280;67629;46.040;18.232;2023-02-15T06:00:36;101497.94;;;-0.07;83.07
78354;BME280;67629;46.040;18.232;2023-02-15T06:02:42;101504.94;;;-0.16;83.24
78354;BME280;67629;46.040;18.232;2023-02-15T06:03:24;101503.81;;;-0.13;83.02
78354;BME280;67629;46.040;18.232;2023-02-15T06:04:07;101501.78;;;-0.21;83.12
78354;BME280;67629;46.040;18.232;2023-02-15T06:04:54;101500.69;;;-0.18;83.64
78354;BME280;67629;46.040;18.232;2023-02-15T06:05:34;101507.22;;;-0.32;83.93
78354;BME280;67629;46.040;18.232;2023-02-15T06:06:15;101509.81;;;-0.41;84.66
78354;BME280;67629;46.040;18.232;2023-02-15T06:06:56;101509.09;;;-0.43;84.20
78354;BME280;67629;46.040;18.232;2023-02-15T06:07:59;101511.13;;;-0.36;83.75
78354;BME280;67629;46.040;18.232;2023-02-15T06:09:18;101512.22;;;-0.38;84.61
78354;BME280;67629;46.040;18.232;2023-02-15T06:10:07;101512.44;;;-0.30;84.54
78354;BME280;67629;46.040;18.232;2023-02-15T06:12:28;101507.31;;;-0.33;84.32
78354;BME280;67629;46.040;18.232;2023-02-15T06:14:12;101510.09;;;-0.24;84.35
78354;BME280;67629;46.040;18.232;2023-02-15T06:15:57;101516.53;;;-0.15;83.68
78354;BME280;67629;46.040;18.232;2023-02-15T06:17:55;101503.97;;;-0.15;84.03
78354;BME280;67629;46.040;18.232;2023-02-15T06:18:39;101503.41;;;-0.09;84.47
78354;BME280;67629;46.040;18.232;2023-02-15T06:19:19;101508.88;;;0.01;83.95
78354;BME280;67629;46.040;18.232;2023-02-15T06:20:06;101506.28;;;0.11;83.86
78354;BME280;67629;46.040;18.232;2023-02-15T06:20:59;101502.22;;;0.16;83.67
78354;BME280;67629;46.040;18.232;2023-02-15T06:21:43;101507.06;;;0.22;83.79
78354;BME280;67629;46.040;18.232;2023-02-15T06:23:03;101500.31;;;0.28;83.63
78354;BME280;67629;46.040;18.232;2023-02-15T06:23:43;101494.53;;;0.32;83.79
78354;BME280;67629;46.040;18.232;2023-02-15T06:24:22;101498.06;;;0.33;83.44
78354;BME280;67629;46.040;18.232;2023-02-15T06:25:01;101494.00;;;0.38;83.96
78354;BME280;67629;46.040;18.232;2023-02-15T06:25:47;101492.88;;;0.41;83.45
78354;BME280;67629;46.040;18.232;2023-02-15T06:26:28;101500.56;;;0.45;83.73
78354;BME280;67629;46.040;18.232;2023-02-15T06:27:10;101497.34;;;0.51;83.34
78354;BME280;67629;46.040;18.232;2023-02-15T06:28:27;101498.81;;;0.65;82.92
78354;BME280;67629;46.040;18.232;2023-02-15T06:29:15;101490.06;;;0.73;83.07
78354;BME280;67629;46.040;18.232;2023-02-15T06:29:55;101496.63;;;0.80;83.31
78354;BME280;67629;46.040;18.232;2023-02-15T06:30:46;101498.44;;;0.79;82.71
78354;BME280;67629;46.040;18.232;2023-02-15T06:31:26;101496.78;;;0.88;82.86
78354;BME280;67629;46.040;18.232;2023-02-15T06:32:08;101495.97;;;0.97;83.17
78354;BME280;67629;46.040;18.232;2023-02-15T06:33:26;101500.38;;;1.07;82.61
78354;BME280;67629;46.040;18.232;2023-02-15T06:34:13;101491.50;;;1.17;82.48
78354;BME280;67629;46.040;18.232;2023-02-15T06:34:55;101492.63;;;1.24;81.48
78354;BME280;67629;46.040;18.232;2023-02-15T06:35:47;101497.63;;;1.28;81.55
78354;BME280;67629;46.040;18.232;2023-02-15T06:36:30;101493.53;;;1.34;81.34
78354;BME280;67629;46.040;18.232;2023-02-15T06:37:10;101490.28;;;1.40;81.12
78354;BME280;67629;46.040;18.232;2023-02-15T06:37:58;101501.41;;;1.16;81.74
78354;BME280;67629;46.040;18.232;2023-02-15T06:40:48;101508.03;;;1.12;81.29
78354;BME280;67629;46.040;18.232;2023-02-15T06:41:52;101499.91;;;0.93;82.25
78354;BME280;67629;46.040;18.232;2023-02-15T06:43:36;101505.88;;;0.66;83.30
78354;BME280;67629;46.040;18.232;2023-02-15T06:44:43;101506.56;;;0.38;83.37
78354;BME280;67629;46.040;18.232;2023-02-15T06:46:01;101515.75;;;0.35;82.77
78354;BME280;67629;46.040;18.232;2023-02-15T06:46:41;101514.78;;;0.36;82.99
78354;BME280;67629;46.040;18.232;2023-02-15T06:49:42;101508.69;;;0.14;83.69